Time;durP1;ratioP1;P1;durP2;ratioP2;P2;SDS_P1;SDS_P2;PMS_P1;PMS_P2;Temp;Humidity;BMP_temperature;BMP_pressure;BME280_temperature;BME280_humidity;BME280_pressure;Samples;Min_cycle;Max_cycle;Signal;HPM_P1;HPM_P2
2023/09/04 00:01:26;;;;;;;13.80;7.50;;;;;;;25.00;41.45;100456.27;108019;1254;59276;-66
2023/09/04 00:03:53;;;;;;;13.20;7.10;;;;;;;25.06;41.27;100458.98;107990;1255;72728;-67
2023/09/04 00:06:20;;;;;;;13.50;7.10;;;;;;;25.26;40.88;100450.98;107955;1254;68159;-68
2023/09/04 00:08:48;;;;;;;11.90;7.60;;;;;;;25.28;40.80;100456.59;107997;1254;72719;-68
2023/09/04 00:11:15;;;;;;;10.60;7.20;;;;;;;25.14;40.84;100458.59;108004;1254;61803;-67
2023/09/04 00:13:42;;;;;;;11.50;6.90;;;;;;;25.07;41.01;100462.98;107995;1254;59381;-68
2023/09/04 00:16:10;;;;;;;14.40;7.40;;;;;;;25.09;41.03;100463.00;107995;1254;71750;-68
2023/09/04 00:18:37;;;;;;;12.40;6.50;;;;;;;25.15;40.83;100465.13;108014;1254;70080;-68
2023/09/04 00:21:05;;;;;;;13.50;7.60;;;;;;;25.02;40.95;100465.93;108107;1253;71450;-66
2023/09/04 00:23:32;;;;;;;10.00;6.60;;;;;;;25.18;40.63;100466.48;108151;1253;61661;-66
2023/09/04 00:25:59;;;;;;;12.60;6.80;;;;;;;25.28;40.35;100464.31;107915;1254;59417;-68
2023/09/04 00:28:27;;;;;;;9.70;6.80;;;;;;;25.31;40.31;100467.59;107936;1254;72965;-66
2023/09/04 00:30:56;;;;;;;8.60;6.50;;;;;;;25.31;40.27;100465.09;107986;1254;70104;-68
2023/09/04 00:33:24;;;;;;;12.80;6.90;;;;;;;25.13;40.59;100467.84;108000;1259;71437;-67
2023/09/04 00:35:51;;;;;;;10.40;6.80;;;;;;;25.29;40.55;100471.08;108030;1254;62032;-67
2023/09/04 00:38:18;;;;;;;16.60;7.00;;;;;;;25.39;40.21;100469.34;108046;1257;60071;-67
2023/09/04 00:40:46;;;;;;;15.40;6.40;;;;;;;25.31;40.39;100467.94;108058;1254;73213;-66
2023/09/04 00:43:14;;;;;;;11.70;7.30;;;;;;;25.30;40.34;100465.75;108001;1254;68697;-66
2023/09/04 00:45:42;;;;;;;11.00;6.50;;;;;;;25.27;40.23;100467.40;108090;1254;72704;-67
2023/09/04 00:48:10;;;;;;;9.00;6.10;;;;;;;25.27;40.21;100468.66;107963;1259;61654;-67
2023/09/04 00:50:38;;;;;;;10.30;6.70;;;;;;;25.05;40.56;100469.45;107853;1254;59996;-67
2023/09/04 00:53:05;;;;;;;8.80;6.30;;;;;;;24.77;41.00;100467.88;107837;1260;73094;-66
2023/09/04 00:55:32;;;;;;;8.50;6.10;;;;;;;25.12;40.36;100467.20;107831;1254;69056;-66
2023/09/04 00:58:00;;;;;;;10.20;6.60;;;;;;;25.26;40.02;100467.48;107980;1254;72657;-66
2023/09/04 01:00:29;;;;;;;9.90;6.50;;;;;;;25.34;39.99;100471.85;107942;1257;61712;-66
2023/09/04 01:02:59;;;;;;;7.90;6.00;;;;;;;25.45;39.63;100479.06;107860;1254;59506;-67
2023/09/04 01:05:29;;;;;;;11.00;6.50;;;;;;;25.34;39.64;100479.18;108071;1254;74048;-67
2023/09/04 01:07:58;;;;;;;13.50;6.80;;;;;;;25.11;40.18;100483.09;107778;1254;71312;-67
2023/09/04 01:10:29;;;;;;;10.90;6.80;;;;;;;25.18;39.92;100486.91;108025;1254;72720;-66
2023/09/04 01:13:12;;;;;;;9.30;6.20;;;;;;;25.21;40.02;100484.17;107682;1254;61535;-68
2023/09/04 01:15:39;;;;;;;9.40;6.40;;;;;;;25.08;40.09;100484.45;107940;1258;58995;-68
2023/09/04 01:18:07;;;;;;;10.90;6.70;;;;;;;25.35;39.36;100481.61;107721;1254;72348;-67
2023/09/04 01:20:35;;;;;;;8.10;5.90;;;;;;;25.50;39.35;100485.21;107962;1254;70235;-67
2023/09/04 01:23:03;;;;;;;9.40;6.70;;;;;;;25.46;39.21;100483.84;107957;1254;71880;-67
2023/09/04 01:25:41;;;;;;;8.10;5.70;;;;;;;25.41;39.61;100478.95;107993;1257;61874;-67
2023/09/04 01:28:33;;;;;;;11.00;6.10;;;;;;;25.43;39.87;100481.45;107933;1254;59990;-67
2023/09/04 01:31:02;;;;;;;10.70;6.20;;;;;;;25.42;39.44;100485.13;108056;1254;73121;-67
2023/09/04 01:33:33;;;;;;;12.20;6.40;;;;;;;25.43;39.57;100486.08;108008;1253;69431;-67
2023/09/04 01:36:04;;;;;;;;;;;;;;;25.30;39.81;100485.30;108177;1254;71428;-67
2023/09/04 01:38:32;;;;;;;;;;;;;;;25.37;39.49;100483.58;108095;1259;60479;-66
2023/09/04 01:41:03;;;;;;;10.10;6.30;;;;;;;25.26;39.86;100483.13;108082;1253;59802;-68
2023/09/04 01:43:31;;;;;;;9.80;6.20;;;;;;;25.21;39.93;100486.09;108103;1254;71903;-67
2023/09/04 01:45:58;;;;;;;9.40;6.30;;;;;;;25.29;39.67;100479.51;108119;1254;69975;-65
2023/09/04 01:48:25;;;;;;;12.50;6.30;;;;;;;25.28;39.90;100481.20;108032;1260;72693;-67
2023/09/04 01:50:53;;;;;;;12.30;6.60;;;;;;;25.33;39.77;100481.84;108068;1254;61419;-68
2023/09/04 01:53:22;;;;;;;11.70;5.90;;;;;;;25.24;39.85;100484.64;108014;1253;59586;-67
2023/09/04 01:55:49;;;;;;;9.90;6.40;;;;;;;25.27;39.80;100487.71;107925;1254;73039;-67
2023/09/04 01:58:17;;;;;;;11.40;6.50;;;;;;;25.23;39.82;100490.44;107930;1253;68887;-67
2023/09/04 02:00:46;;;;;;;11.70;6.20;;;;;;;25.07;40.17;100489.42;108080;1254;71752;-67
2023/09/04 02:03:14;;;;;;;10.40;6.10;;;;;;;25.10;40.20;100488.39;108059;1258;60530;-66
2023/09/04 02:05:42;;;;;;;9.20;6.30;;;;;;;25.22;40.04;100487.31;108101;1254;60495;-67
2023/09/04 02:08:10;;;;;;;10.20;6.60;;;;;;;25.20;40.03;100489.60;107887;1254;72505;-67
2023/09/04 02:10:37;;;;;;;8.60;6.20;;;;;;;25.35;39.73;100491.16;108002;1254;69958;-66
2023/09/04 02:13:05;;;;;;;10.80;6.40;;;;;;;25.25;39.80;100490.13;107917;1259;72687;-67
2023/09/04 02:15:32;;;;;;;9.00;6.10;;;;;;;25.15;40.06;100494.38;107973;1254;61738;-67
2023/09/04 02:18:03;;;;;;;9.20;6.30;;;;;;;25.18;40.02;100493.28;108069;1253;60129;-68
2023/09/04 02:20:30;;;;;;;11.90;6.90;;;;;;;25.32;40.06;100493.58;108022;1259;73091;-67
2023/09/04 02:22:58;;;;;;;9.40;6.40;;;;;;;25.43;39.68;100497.20;108058;1254;70268;-66
2023/09/04 02:25:25;;;;;;;8.20;6.10;;;;;;;25.55;39.58;100501.13;107946;1254;72459;-67
2023/09/04 02:27:53;;;;;;;9.80;6.60;;;;;;;25.49;39.66;100500.29;107999;1254;60463;-67
2023/09/04 02:30:21;;;;;;;8.60;6.10;;;;;;;25.52;39.47;100500.88;107996;1254;59758;-67
2023/09/04 02:32:49;;;;;;;11.60;6.30;;;;;;;25.42;39.90;100502.02;107872;1259;73054;-67
2023/09/04 02:35:17;;;;;;;8.20;6.20;;;;;;;25.38;39.80;100504.88;108012;1254;69962;-67
2023/09/04 02:37:44;;;;;;;9.40;6.30;;;;;;;25.36;39.90;100504.76;107963;1258;72386;-68
2023/09/04 02:40:12;;;;;;;11.10;7.20;;;;;;;25.27;40.17;100507.02;107940;1257;61716;-68
2023/09/04 02:42:39;;;;;;;9.20;6.80;;;;;;;25.09;40.35;100498.19;107916;1254;59597;-68
2023/09/04 02:45:08;;;;;;;11.50;6.80;;;;;;;25.17;40.44;100498.40;107806;1260;71772;-67
2023/09/04 02:47:38;;;;;;;12.40;6.90;;;;;;;25.07;40.42;100490.84;107962;1254;69205;-67
2023/09/04 02:50:06;;;;;;;12.20;6.50;;;;;;;24.92;40.64;100488.62;107934;1257;73298;-66
2023/09/04 02:52:34;;;;;;;11.10;6.90;;;;;;;24.94;40.76;100488.96;107784;1258;60469;-67
2023/09/04 02:55:03;;;;;;;10.70;6.80;;;;;;;25.10;40.48;100484.43;107920;1254;60006;-67
2023/09/04 02:57:31;;;;;;;9.30;6.70;;;;;;;24.99;40.62;100485.42;107920;1254;71739;-66
2023/09/04 02:59:58;;;;;;;13.20;5.90;;;;;;;24.99;40.70;100486.36;107918;1254;70038;-67
2023/09/04 03:02:26;;;;;;;9.60;6.90;;;;;;;25.04;40.52;100487.12;107913;1253;71696;-66
2023/09/04 03:04:54;;;;;;;10.50;7.40;;;;;;;25.05;40.45;100488.86;107775;1254;60437;-66
2023/09/04 03:07:26;;;;;;;13.60;7.30;;;;;;;25.09;40.52;100491.74;107834;1254;60480;-66
2023/09/04 03:09:57;;;;;;;11.90;6.90;;;;;;;25.07;40.51;100489.58;108105;1253;71995;-67
2023/09/04 03:12:32;;;;;;;11.60;6.70;;;;;;;25.03;40.61;100492.27;107995;1253;70625;-66
2023/09/04 03:15:00;;;;;;;9.80;6.30;;;;;;;24.77;41.11;100491.98;108074;1253;74925;-68
2023/09/04 03:17:28;;;;;;;10.40;6.90;;;;;;;24.79;41.27;100494.48;108018;1253;60871;-67
2023/09/04 03:19:57;;;;;;;11.70;6.40;;;;;;;24.81;41.22;100500.23;108068;1253;60465;-67
2023/09/04 03:22:25;;;;;;;11.90;6.50;;;;;;;24.76;41.31;100506.80;107998;1253;71787;-67
2023/09/04 03:24:53;;;;;;;9.60;6.40;;;;;;;24.81;41.32;100508.11;108042;1254;68877;-66
2023/09/04 03:27:21;;;;;;;13.90;7.30;;;;;;;24.93;41.01;100511.73;107872;1256;72753;-66
2023/09/04 03:29:49;;;;;;;9.90;6.10;;;;;;;24.95;40.97;100509.91;107785;1253;60442;-66
2023/09/04 03:32:18;;;;;;;10.80;7.00;;;;;;;25.09;40.80;100512.93;107999;1254;60109;-67
2023/09/04 03:34:46;;;;;;;8.70;6.70;;;;;;;24.98;40.91;100510.40;108013;1254;73203;-67
2023/09/04 03:37:13;;;;;;;11.20;6.80;;;;;;;24.92;41.14;100505.84;107960;1254;69666;-68
2023/09/04 03:39:41;;;;;;;11.10;6.80;;;;;;;24.83;41.25;100504.71;107790;1254;72664;-68
2023/09/04 03:42:08;;;;;;;10.00;6.70;;;;;;;24.87;41.18;100506.84;107985;1254;60406;-66
2023/09/04 03:44:35;;;;;;;9.30;6.70;;;;;;;24.97;41.30;100510.97;107962;1254;59238;-67
2023/09/04 03:47:03;;;;;;;9.90;6.80;;;;;;;24.96;41.26;100508.18;107990;1254;73014;-66
2023/09/04 03:49:31;;;;;;;10.30;7.10;;;;;;;25.02;41.19;100510.50;107807;1254;68980;-66
2023/09/04 03:51:59;;;;;;;12.10;7.40;;;;;;;25.25;40.97;100510.70;107977;1254;72996;-66
2023/09/04 03:54:29;;;;;;;9.80;6.70;;;;;;;25.45;40.61;100511.75;107962;1254;61774;-67
2023/09/04 03:56:57;;;;;;;13.30;6.60;;;;;;;25.74;40.67;100515.85;107805;1254;62051;-68
2023/09/04 03:59:24;;;;;;;18.90;7.00;;;;;;;26.15;40.15;100516.43;107780;1254;73996;-67
2023/09/04 04:01:53;;;;;;;13.50;6.60;;;;;;;26.56;39.31;100512.16;107864;1254;70012;-68
2023/09/04 04:04:20;;;;;;;10.30;6.50;;;;;;;26.85;38.60;100511.80;107818;1256;70388;-67
2023/09/04 04:06:48;;;;;;;10.00;6.50;;;;;;;27.02;38.24;100513.89;107829;1253;61648;-69
2023/09/04 04:09:15;;;;;;;11.60;6.50;;;;;;;27.11;38.12;100520.61;108047;1254;60323;-68
2023/09/04 04:11:43;;;;;;;11.30;6.50;;;;;;;27.44;37.68;100522.69;107937;1254;73870;-67
2023/09/04 04:14:12;;;;;;;11.00;6.40;;;;;;;27.93;37.16;100519.23;108011;1254;68983;-67
2023/09/04 04:16:40;;;;;;;10.30;6.80;;;;;;;28.37;36.31;100515.79;107962;1255;71740;-67
2023/09/04 04:19:07;;;;;;;8.50;5.70;;;;;;;28.70;35.78;100517.69;107787;1254;61661;-67
2023/09/04 04:21:37;;;;;;;9.70;6.70;;;;;;;29.11;35.18;100515.75;107932;1254;60604;-68
2023/09/04 04:24:06;;;;;;;11.00;6.40;;;;;;;29.31;34.70;100517.02;108035;1254;73816;-68
2023/09/04 04:26:34;;;;;;;10.40;6.00;;;;;;;29.93;33.96;100520.40;108078;1253;70308;-68
2023/09/04 04:29:01;;;;;;;19.40;6.00;;;;;;;30.42;33.45;100519.63;107972;1254;72223;-66
2023/09/04 04:31:28;;;;;;;11.20;6.30;;;;;;;30.83;32.73;100522.10;108036;1254;60005;-67
2023/09/04 04:33:56;;;;;;;8.80;6.10;;;;;;;31.01;32.23;100529.62;108065;1253;60903;-67
2023/09/04 04:36:24;;;;;;;10.30;6.00;;;;;;;31.03;32.02;100523.55;107929;1253;74334;-68
2023/09/04 04:38:52;;;;;;;10.50;5.70;;;;;;;31.15;31.98;100516.78;108034;1253;69930;-68
2023/09/04 04:41:20;;;;;;;10.60;5.80;;;;;;;31.38;31.45;100510.28;108028;1253;71450;-67
2023/09/04 04:43:48;;;;;;;21.20;6.30;;;;;;;31.12;31.58;100513.80;108074;1253;60893;-67
2023/09/04 04:46:17;;;;;;;9.10;6.10;;;;;;;30.73;32.02;100518.39;107965;1253;60319;-66
2023/09/04 04:48:45;;;;;;;9.30;6.30;;;;;;;30.41;32.58;100522.83;107985;1254;73941;-67
2023/09/04 04:51:12;;;;;;;13.80;6.40;;;;;;;30.37;32.70;100524.17;108079;1253;69995;-67
2023/09/04 04:53:40;;;;;;;10.30;5.90;;;;;;;30.01;33.20;100526.59;108026;1254;72658;-67
2023/09/04 04:56:08;;;;;;;14.50;6.30;;;;;;;29.70;33.65;100519.96;107998;1254;61149;-68
2023/09/04 04:58:36;;;;;;;12.40;6.20;;;;;;;29.50;34.01;100518.41;108008;1252;60325;-68
2023/09/04 05:01:06;;;;;;;18.20;6.50;;;;;;;29.16;34.56;100522.14;108018;1253;72635;-67
2023/09/04 05:03:34;;;;;;;16.30;7.00;;;;;;;28.83;35.08;100522.39;108099;1257;68863;-67
2023/09/04 05:06:02;;;;;;;15.20;7.00;;;;;;;28.59;35.50;100527.48;107941;1253;71650;-67
2023/09/04 05:08:30;;;;;;;17.20;7.10;;;;;;;28.57;35.71;100526.48;108066;1253;60326;-68
2023/09/04 05:11:03;;;;;;;12.80;6.70;;;;;;;28.55;36.03;100527.56;108107;1253;60057;-68
2023/09/04 05:13:34;;;;;;;13.50;6.80;;;;;;;28.63;36.12;100525.45;108077;1253;73898;-67
2023/09/04 05:16:05;;;;;;;16.60;7.10;;;;;;;28.73;35.97;100530.20;107862;1253;70103;-68
2023/09/04 05:18:36;;;;;;;16.30;6.60;;;;;;;28.78;35.98;100531.08;108028;1254;72602;-68
2023/09/04 05:21:05;;;;;;;15.00;7.10;;;;;;;28.86;35.65;100540.86;108048;1253;60150;-68
2023/09/04 05:23:33;;;;;;;12.80;7.10;;;;;;;28.88;35.88;100541.92;108009;1253;60005;-67
2023/09/04 05:26:01;;;;;;;11.20;6.90;;;;;;;28.97;35.86;100546.68;108138;1253;72714;-67
2023/09/04 05:28:29;;;;;;;14.90;6.40;;;;;;;29.09;35.53;100549.41;107984;1253;70594;-68
2023/09/04 05:31:06;;;;;;;12.30;6.60;;;;;;;29.03;35.48;100550.63;108041;1253;72659;-68
2023/09/04 05:33:33;;;;;;;12.00;6.50;;;;;;;29.15;35.50;100550.43;108049;1253;60447;-68
2023/09/04 05:36:01;;;;;;;13.70;6.40;;;;;;;29.74;34.97;100549.52;108126;1253;60412;-67
2023/09/04 05:38:28;;;;;;;12.60;5.80;;;;;;;30.39;34.34;100549.83;108102;1259;73861;-68
2023/09/04 05:40:57;;;;;;;13.40;6.10;;;;;;;31.23;33.24;100548.63;108148;1253;68925;-68
2023/09/04 05:43:25;;;;;;;8.90;5.10;;;;;;;31.95;31.83;100550.13;108131;1253;72625;-69
2023/09/04 05:45:52;;;;;;;8.90;5.60;;;;;;;32.50;31.07;100548.55;108122;1254;60496;-68
2023/09/04 05:48:20;;;;;;;16.10;5.50;;;;;;;33.21;29.89;100551.82;108098;1255;60362;-68
2023/09/04 05:50:47;;;;;;;11.60;5.30;;;;;;;33.74;29.32;100545.58;108074;1254;73814;-69
2023/09/04 05:53:16;;;;;;;12.50;5.60;;;;;;;34.29;28.42;100551.20;108093;1253;61521;-69
2023/09/04 05:55:43;;;;;;;12.10;5.20;;;;;;;34.54;27.85;100549.73;108085;1253;62502;-68
2023/09/04 05:58:12;;;;;;;9.90;4.80;;;;;;;34.94;27.26;100552.17;108190;1254;60427;-69
2023/09/04 06:00:40;;;;;;;6.60;4.60;;;;;;;35.42;26.67;100557.04;108098;1253;60494;-69
2023/09/04 06:03:09;;;;;;;9.80;4.70;;;;;;;35.79;25.89;100563.43;108095;1253;64926;-69
2023/09/04 06:05:37;;;;;;;7.10;4.20;;;;;;;36.00;25.40;100566.44;108137;1252;61547;-69
2023/09/04 06:08:04;;;;;;;8.10;4.50;;;;;;;36.14;24.93;100568.76;108270;1255;63793;-69
2023/09/04 06:10:32;;;;;;;7.80;4.80;;;;;;;36.09;24.83;100566.31;108712;1254;60336;-68
2023/09/04 06:12:59;;;;;;;6.20;4.10;;;;;;;36.09;24.87;100569.47;108697;1253;58992;-69
2023/09/04 06:15:27;;;;;;;15.00;4.60;;;;;;;36.13;24.78;100570.67;108640;1253;63644;-69
2023/09/04 06:17:55;;;;;;;7.60;4.00;;;;;;;36.23;24.77;100567.45;108391;1253;61966;-68
2023/09/04 06:20:22;;;;;;;8.40;4.00;;;;;;;36.49;24.46;100566.25;108020;1254;63861;-68
2023/09/04 06:22:50;;;;;;;8.00;3.70;;;;;;;36.62;24.42;100562.74;108259;1253;60392;-68
2023/09/04 06:25:17;;;;;;;9.90;4.50;;;;;;;36.88;23.95;100563.78;108036;1254;60278;-69
2023/09/04 06:27:45;;;;;;;9.10;4.00;;;;;;;37.11;23.46;100566.66;108045;1254;64174;-68
2023/09/04 06:30:12;;;;;;;4.90;3.50;;;;;;;37.24;23.32;100569.38;108011;1254;61371;-71
2023/09/04 06:32:39;;;;;;;5.70;3.50;;;;;;;37.06;23.14;100569.02;107988;1254;63965;-67
2023/09/04 06:35:07;;;;;;;9.10;3.50;;;;;;;36.82;23.26;100576.17;107962;1256;60339;-69
2023/09/04 06:37:35;;;;;;;8.10;4.00;;;;;;;36.54;23.36;100583.61;108007;1253;60174;-68
2023/09/04 06:40:03;;;;;;;7.30;3.90;;;;;;;36.39;23.56;100588.10;107942;1254;64943;-69
2023/09/04 06:42:31;;;;;;;8.00;3.80;;;;;;;36.23;23.41;100591.39;107922;1254;60309;-68
2023/09/04 06:44:58;;;;;;;6.90;3.60;;;;;;;36.17;23.56;100593.80;107959;1254;62438;-68
2023/09/04 06:47:26;;;;;;;6.10;3.50;;;;;;;36.23;23.82;100593.83;107997;1257;60325;-68
2023/09/04 06:49:53;;;;;;;7.90;4.20;;;;;;;36.55;23.67;100593.19;107978;1254;59140;-69
2023/09/04 06:52:20;;;;;;;7.60;3.70;;;;;;;36.92;23.43;100589.27;107940;1254;65415;-68
2023/09/04 06:54:48;;;;;;;7.00;3.40;;;;;;;37.26;22.80;100590.10;107976;1258;61371;-70
2023/09/04 06:57:15;;;;;;;5.90;3.70;;;;;;;37.72;22.44;100591.89;107966;1254;62566;-69
2023/09/04 06:59:43;;;;;;;8.20;3.40;;;;;;;38.45;21.93;100584.45;107923;1255;60406;-69
2023/09/04 07:02:10;;;;;;;7.50;3.30;;;;;;;38.80;21.16;100583.96;107915;1254;61026;-68
2023/09/04 07:04:39;;;;;;;5.50;3.10;;;;;;;39.07;20.99;100585.17;108001;1254;64939;-69
2023/09/04 07:07:06;;;;;;;6.40;3.00;;;;;;;39.16;20.37;100587.45;107973;1254;61463;-69
2023/09/04 07:09:33;;;;;;;8.00;3.50;;;;;;;39.03;20.38;100588.70;108027;1254;62421;-69
2023/09/04 07:12:01;;;;;;;7.60;3.10;;;;;;;38.83;20.76;100585.81;107964;1258;60223;-69
2023/09/04 07:14:28;;;;;;;8.70;3.50;;;;;;;39.02;20.67;100594.95;107944;1254;59568;-69
2023/09/04 07:16:55;;;;;;;5.90;3.10;;;;;;;38.87;20.62;100592.98;107931;1254;64924;-69
2023/09/04 07:19:35;;;;;;;5.60;2.90;;;;;;;39.18;20.51;100596.19;107953;1258;60515;-70
2023/09/04 07:22:03;;;;;;;7.00;2.90;;;;;;;39.41;20.24;100596.34;107928;1256;64226;-70
2023/09/04 07:24:30;;;;;;;3.10;2.50;;;;;;;39.71;20.04;100601.63;107924;1254;60307;-69
2023/09/04 07:27:00;;;;;;;7.10;3.20;;;;;;;39.80;19.78;100599.33;108018;1253;59575;-69
2023/09/04 07:29:27;;;;;;;12.00;4.20;;;;;;;39.57;19.89;100598.63;108086;1253;63613;-69
2023/09/04 07:31:56;;;;;;;6.90;3.10;;;;;;;39.26;20.28;100598.80;108121;1253;61435;-69
2023/09/04 07:34:24;;;;;;;4.30;3.20;;;;;;;39.05;20.53;100600.43;108143;1253;63716;-69
2023/09/04 07:36:52;;;;;;;5.80;3.00;;;;;;;38.75;20.51;100597.32;108128;1253;60342;-69
2023/09/04 07:39:19;;;;;;;8.00;3.30;;;;;;;38.59;20.76;100602.61;108064;1253;60336;-69
2023/09/04 07:41:46;;;;;;;6.90;3.30;;;;;;;38.56;20.87;100601.98;108097;1253;65036;-69
2023/09/04 07:44:14;;;;;;;7.80;3.20;;;;;;;38.77;20.64;100598.79;108028;1253;68269;-70
2023/09/04 07:46:41;;;;;;;13.70;3.10;;;;;;;38.84;20.57;100600.80;108065;1253;63792;-69
2023/09/04 07:49:09;;;;;;;9.80;3.40;;;;;;;39.07;20.51;100605.05;108010;1254;60375;-69
2023/09/04 07:51:36;;;;;;;7.70;3.50;;;;;;;39.59;20.13;100602.80;108064;1258;60245;-69
2023/09/04 07:54:04;;;;;;;6.10;3.30;;;;;;;39.88;19.60;100604.80;108094;1253;64970;-69
2023/09/04 07:56:31;;;;;;;7.60;3.20;;;;;;;39.90;19.25;100607.89;108060;1253;60186;-69
2023/09/04 07:59:09;;;;;;;8.20;2.80;;;;;;;39.97;19.01;100606.72;108123;1253;63767;-69
2023/09/04 08:01:37;;;;;;;8.50;2.80;;;;;;;40.15;18.67;100609.75;108020;1253;59181;-69
2023/09/04 08:04:05;;;;;;;8.40;2.90;;;;;;;39.96;18.49;100618.01;108066;1253;60354;-70
2023/09/04 08:06:32;;;;;;;5.70;2.50;;;;;;;39.85;18.85;100620.12;108056;1253;65074;-69
2023/09/04 08:08:59;;;;;;;6.40;2.40;;;;;;;39.76;18.73;100614.48;108047;1252;60380;-68
2023/09/04 08:11:27;;;;;;;12.10;3.00;;;;;;;39.72;19.12;100618.41;108092;1253;62460;-69
2023/09/04 08:13:54;;;;;;;7.50;2.50;;;;;;;39.81;18.97;100618.91;108060;1257;60320;-69
2023/09/04 08:16:21;;;;;;;7.60;3.60;;;;;;;39.81;18.88;100620.85;108066;1253;61152;-69
2023/09/04 08:18:49;;;;;;;5.70;2.80;;;;;;;39.64;19.21;100626.42;108092;1252;65136;-69
2023/09/04 08:21:17;;;;;;;6.40;2.80;;;;;;;39.44;19.43;100624.20;108092;1253;61342;-69
2023/09/04 08:23:44;;;;;;;6.50;2.70;;;;;;;39.20;19.42;100615.89;108040;1254;62447;-69
2023/09/04 08:26:14;;;;;;;6.70;2.80;;;;;;;38.55;19.61;100618.25;108028;1253;58429;-68
2023/09/04 08:28:42;;;;;;;3.90;2.70;;;;;;;38.02;20.41;100622.71;108094;1253;59761;-69
2023/09/04 08:31:10;;;;;;;6.10;2.70;;;;;;;37.60;20.99;100621.06;108021;1253;64959;-69
2023/09/04 08:33:38;;;;;;;8.70;3.10;;;;;;;37.25;21.23;100620.05;108084;1253;61428;-68
2023/09/04 08:36:05;;;;;;;5.80;3.20;;;;;;;36.92;21.60;100619.52;108020;1254;62609;-69
2023/09/04 08:38:33;;;;;;;12.90;3.30;;;;;;;36.96;21.58;100619.80;108020;1253;60894;-69
2023/09/04 08:41:02;;;;;;;7.30;3.40;;;;;;;36.96;21.50;100622.95;108030;1253;60511;-69
2023/09/04 08:43:30;;;;;;;4.70;3.30;;;;;;;37.00;21.76;100628.53;108042;1253;76084;-69
2023/09/04 08:45:59;;;;;;;6.00;3.10;;;;;;;37.31;21.43;100630.16;108027;1253;60194;-69
2023/09/04 08:48:29;;;;;;;6.10;3.60;;;;;;;37.47;21.36;100625.36;108046;1253;63882;-69
2023/09/04 08:50:57;;;;;;;5.10;3.10;;;;;;;37.59;21.41;100625.80;108072;1252;60435;-69
2023/09/04 08:53:25;;;;;;;5.80;3.00;;;;;;;38.10;21.44;100625.58;108012;1253;60491;-69
2023/09/04 08:55:53;;;;;;;6.60;3.10;;;;;;;38.39;21.24;100624.52;108196;1253;65451;-69
2023/09/04 08:58:21;;;;;;;8.60;3.40;;;;;;;38.56;20.95;100623.11;108224;1253;61988;-69
2023/09/04 09:00:48;;;;;;;10.00;3.50;;;;;;;38.58;20.96;100619.84;108071;1253;63881;-69
2023/09/04 09:03:16;;;;;;;10.80;3.40;;;;;;;38.56;20.73;100622.95;108112;1252;60349;-69
2023/09/04 09:05:46;;;;;;;7.20;3.10;;;;;;;38.17;20.84;100627.29;108198;1253;60248;-69
2023/09/04 09:08:17;;;;;;;5.80;3.00;;;;;;;37.87;21.25;100628.30;108116;1252;63721;-69
2023/09/04 09:10:47;;;;;;;10.90;3.10;;;;;;;37.88;21.21;100628.63;108110;1252;61424;-69
2023/09/04 09:13:15;;;;;;;7.90;3.30;;;;;;;37.93;21.39;100625.88;107984;1253;63807;-69
2023/09/04 09:15:42;;;;;;;4.20;3.10;;;;;;;38.02;21.41;100635.12;108091;1252;59177;-69
2023/09/04 09:18:09;;;;;;;7.10;3.20;;;;;;;37.86;21.11;100632.67;108125;1252;59792;-68
2023/09/04 09:20:39;;;;;;;6.20;3.10;;;;;;;37.74;21.34;100627.77;108151;1252;65098;-69
2023/09/04 09:23:06;;;;;;;4.40;2.80;;;;;;;37.80;21.41;100627.67;108095;1253;61468;-68
2023/09/04 09:25:34;;;;;;;6.50;3.10;;;;;;;37.88;21.08;100630.52;108148;1253;62506;-69
2023/09/04 09:28:04;;;;;;;5.70;3.00;;;;;;;38.17;20.75;100628.94;108197;1253;59098;-69
2023/09/04 09:30:38;;;;;;;5.70;2.90;;;;;;;38.32;20.62;100629.84;108115;1251;60442;-69
2023/09/04 09:33:12;;;;;;;6.20;2.90;;;;;;;38.43;20.48;100628.96;108083;1252;66943;-69
2023/09/04 09:35:40;;;;;;;6.10;2.70;;;;;;;38.49;20.54;100624.83;108106;1254;63319;-69
2023/09/04 09:38:08;;;;;;;7.70;3.00;;;;;;;38.58;20.47;100620.77;108098;1253;62518;-68
2023/09/04 09:40:36;;;;;;;6.10;3.00;;;;;;;38.60;20.42;100625.07;108174;1253;60358;-69
2023/09/04 09:43:04;;;;;;;5.60;3.00;;;;;;;38.50;20.60;100620.73;108141;1252;60368;-69
2023/09/04 09:45:32;;;;;;;8.80;2.90;;;;;;;38.37;20.71;100619.59;108108;1253;63704;-70
2023/09/04 09:48:07;;;;;;;7.30;2.60;;;;;;;38.47;20.41;100621.19;108068;1253;61634;-70
2023/09/04 09:50:37;;;;;;;6.20;2.70;;;;;;;38.42;20.00;100624.54;108070;1253;65665;-70
2023/09/04 09:53:04;;;;;;;10.50;2.90;;;;;;;38.31;19.83;100624.47;108057;1253;60400;-68
2023/09/04 09:55:33;;;;;;;4.40;2.90;;;;;;;38.39;19.98;100623.64;108064;1256;59170;-69
2023/09/04 09:58:01;;;;;;;5.80;3.20;;;;;;;38.48;19.69;100623.44;108135;1253;63659;-69
2023/09/04 10:00:29;;;;;;;8.20;3.00;;;;;;;38.34;19.99;100622.94;108104;1252;61517;-68
2023/09/04 10:02:57;;;;;;;6.90;3.00;;;;;;;38.28;20.37;100628.11;108172;1253;71509;-69
2023/09/04 10:05:25;;;;;;;6.40;3.30;;;;;;;38.12;20.67;100636.94;108030;1253;60445;-69
2023/09/04 10:08:00;;;;;;;5.60;3.10;;;;;;;37.98;20.84;100633.75;108062;1253;60330;-69
2023/09/04 10:10:29;;;;;;;5.90;2.90;;;;;;;37.76;20.76;100634.35;108134;1252;64972;-68
2023/09/04 10:13:03;;;;;;;6.00;3.10;;;;;;;37.55;20.60;100637.24;108122;1253;63530;-69
2023/09/04 10:15:32;;;;;;;9.50;3.60;;;;;;;37.26;21.07;100638.43;108171;1252;74881;-68
2023/09/04 10:18:32;;;;;;;6.00;2.90;;;;;;;36.95;21.28;100634.52;108143;1252;59222;-69
2023/09/04 10:21:00;;;;;;;6.30;3.30;;;;;;;36.81;21.64;100640.23;107786;1252;60425;-70
2023/09/04 10:23:32;;;;;;;7.30;3.60;;;;;;;36.62;21.33;100643.70;108009;1253;64929;-70
2023/09/04 10:26:11;;;;;;;6.50;3.30;;;;;;;36.49;21.35;100641.58;108106;1253;62252;-68
2023/09/04 10:28:40;;;;;;;5.60;3.40;;;;;;;36.31;21.63;100640.52;108063;1253;62603;-69
2023/09/04 10:31:12;;;;;;;7.50;3.60;;;;;;;36.46;21.27;100640.85;108084;1253;60326;-68
2023/09/04 10:33:40;;;;;;;6.70;3.40;;;;;;;36.62;21.22;100642.90;108231;1253;60582;-69
2023/09/04 10:36:08;;;;;;;6.20;3.30;;;;;;;36.68;21.15;100640.35;108015;1253;63956;-69
2023/09/04 10:38:35;;;;;;;7.20;3.60;;;;;;;36.61;21.49;100639.56;108083;1253;64121;-69
2023/09/04 10:41:04;;;;;;;6.90;3.40;;;;;;;36.51;21.54;100637.89;108008;1253;62925;-68
2023/09/04 10:43:41;;;;;;;5.80;3.40;;;;;;;36.43;21.78;100633.28;107961;1253;61127;-68
2023/09/04 10:46:10;;;;;;;5.70;3.50;;;;;;;36.53;22.11;100632.54;108101;1253;60510;-69
2023/09/04 10:48:49;;;;;;;6.90;3.20;;;;;;;36.90;22.13;100633.95;108121;1253;64062;-69
2023/09/04 10:51:33;;;;;;;8.50;3.00;;;;;;;36.89;22.24;100630.14;108051;1253;62488;-69
2023/09/04 10:54:02;;;;;;;6.10;3.20;;;;;;;36.88;22.29;100632.98;108208;1253;62965;-69
2023/09/04 10:56:59;;;;;;;10.70;3.10;;;;;;;36.96;22.03;100636.29;108126;1253;60546;-69
2023/09/04 10:59:27;;;;;;;6.60;3.40;;;;;;;36.97;22.31;100631.13;108082;1253;60480;-69
2023/09/04 11:01:54;;;;;;;8.80;3.60;;;;;;;36.88;22.59;100634.63;108194;1252;63737;-69
2023/09/04 11:04:34;;;;;;;10.00;3.40;;;;;;;36.78;22.85;100639.58;108150;1253;61414;-69
2023/09/04 11:07:20;;;;;;;6.20;3.50;;;;;;;36.65;22.80;100641.73;108125;1251;65942;-69
2023/09/04 11:09:48;;;;;;;4.70;3.10;;;;;;;36.52;23.02;100642.46;108145;1252;60222;-70
2023/09/04 11:12:24;;;;;;;4.10;3.00;;;;;;;36.41;22.81;100642.30;108178;1257;60326;-70
2023/09/04 11:14:55;;;;;;;4.80;2.80;;;;;;;36.23;22.26;100642.03;108170;1253;64962;-69
2023/09/04 11:17:27;;;;;;;5.40;3.00;;;;;;;36.08;22.71;100640.98;108153;1253;63702;-69
2023/09/04 11:19:55;;;;;;;8.60;3.60;;;;;;;35.86;23.08;100646.00;108143;1253;65981;-69
2023/09/04 11:22:26;;;;;;;8.80;2.80;;;;;;;35.75;23.26;100642.88;108036;1252;60141;-68